Ana Sayfa
METAR-TAF:

METAR-TAF

Havaalanları :

Bridgeport Municipal Airport

Bridgeport, Teksas, Amerika Birleşik Devletleri

Enlem: 33-10-31N, Boylam: 097-49-42W, yükseklik: 260 m

Güncel hava durumu gözlemi

Rapor saat 15:15 UTC de 38 dakika önce yapıldı.
Rüzgar güney/güneybatıdan 8 kt ve 14 kt'a kadar ani rüzgarlar, güney ve batı/güneybatı arasında değişken
Sıcaklık 31°C
Nem 63%
Basınç 1014 hPa
Görüş mesafesi: 16.1 km
Açık gökyüzü

METAR: KXBP 251515Z AUTO 20008G14KT 180V240 10SM CLR 31/23 A2995 RMK AO2 T03140229

Saat: 10:53 (15:53 UTC)


TAF: eksik

4.000'den fazla havaalanı için hava durumu gözlemleri ve tahminleri (METAR ve TAF raporları).

Kullanılabilir istasyonlar harita üzerinde sarı ve kırmızı noktalarla gösterilir.

İstasyonun adını görmek için fareyi noktanın üzerinde gezdirin.

Sonrasında hava gözlem ve tahminlerini görmek için tıklayın.

Haritayı değiştirmek için: yaklaştırmak için siyah artı işaretli yeşil düğmeye ve uzaklaştırmak için de eksi işaretli düğmeye hızla tıklayın; bitişik haritalar için yeşil okları kullanın.


METAR-TAF: